Time;durP1;ratioP1;P1;durP2;ratioP2;P2;SDS_P1;SDS_P2;PMS_P1;PMS_P2;Temp;Humidity;BMP_temperature;BMP_pressure;BME280_temperature;BME280_humidity;BME280_pressure;Samples;Min_cycle;Max_cycle;Signal;HPM_P1;HPM_P2
2023/04/28 00:01:49;;;;;;;10.47;8.63;;;14.60;70.70;;;;;;5053920;28;20446;-56
2023/04/28 00:04:16;;;;;;;9.87;8.93;;;14.60;70.80;;;;;;5053917;28;20835;-57
2023/04/28 00:06:43;;;;;;;9.00;8.10;;;14.60;71.00;;;;;;5053826;28;20453;-56
2023/04/28 00:09:10;;;;;;;10.40;9.40;;;14.60;71.50;;;;;;5053259;28;20839;-56
2023/04/28 00:11:38;;;;;;;9.90;8.90;;;14.60;72.70;;;;;;5053658;28;20457;-56
2023/04/28 00:14:05;;;;;;;10.90;9.80;;;14.60;72.10;;;;;;5053580;28;20477;-56
2023/04/28 00:16:32;;;;;;;10.43;8.57;;;14.60;71.90;;;;;;5053310;28;20511;-56
2023/04/28 00:18:59;;;;;;;9.77;8.87;;;14.50;73.50;;;;;;5053592;28;20457;-56
2023/04/28 00:21:27;;;;;;;10.70;9.43;;;14.50;74.50;;;;;;5053576;28;20464;-56
2023/04/28 00:23:54;;;;;;;11.40;10.23;;;14.50;75.10;;;;;;5053159;28;20987;-56
2023/04/28 00:26:20;;;;;;;10.70;9.70;;;14.50;74.80;;;;;;5053268;28;20448;-56
2023/04/28 00:28:48;;;;;;;12.10;10.13;;;14.50;75.10;;;;;;5053064;28;20947;-56
2023/04/28 00:31:15;;;;;;;12.17;10.20;;;14.40;75.40;;;;;;5053512;28;20457;-56
2023/04/28 00:33:43;;;;;;;12.40;9.10;;;14.40;75.80;;;;;;5053356;28;20473;-56
2023/04/28 00:36:10;;;;;;;13.90;9.37;;;14.40;76.60;;;;;;5053022;28;20493;-56
2023/04/28 00:38:37;;;;;;;13.67;9.23;;;14.30;77.30;;;;;;5053321;28;20477;-56
2023/04/28 00:41:04;;;;;;;13.03;9.80;;;14.40;78.20;;;;;;5053454;28;20868;-56
2023/04/28 00:43:31;;;;;;;10.50;9.50;;;14.30;78.70;;;;;;5052966;28;20523;-56
2023/04/28 00:45:59;;;;;;;10.60;9.50;;;14.30;79.50;;;;;;5053332;28;20446;-56
2023/04/28 00:48:26;;;;;;;10.60;8.87;;;14.30;80.40;;;;;;5053457;28;20453;-56
2023/04/28 00:50:53;;;;;;;9.77;8.47;;;14.30;81.70;;;;;;5054341;28;20471;-56
2023/04/28 00:53:20;;;;;;;12.53;9.87;;;14.30;82.20;;;;;;5056992;28;20461;-56
2023/04/28 00:55:47;;;;;;;12.47;10.23;;;14.30;82.30;;;;;;5057209;28;20493;-56
2023/04/28 00:58:14;;;;;;;12.77;10.00;;;14.30;82.40;;;;;;5057266;28;20457;-56
2023/04/28 01:00:41;;;;;;;12.63;10.67;;;14.30;81.70;;;;;;5057226;28;20453;-56
2023/04/28 01:03:09;;;;;;;13.70;9.70;;;14.30;82.20;;;;;;5057082;28;20441;-57
2023/04/28 01:05:37;;;;;;;11.10;9.90;;;14.30;82.30;;;;;;5056792;28;20891;-56
2023/04/28 01:08:03;;;;;;;11.97;9.80;;;14.30;82.40;;;;;;5056836;28;20464;-56
2023/04/28 01:10:30;;;;;;;10.90;9.50;;;14.30;82.90;;;;;;5056694;28;20975;-56
2023/04/28 01:12:57;;;;;;;10.27;9.27;;;14.20;83.50;;;;;;5056908;28;20446;-57
2023/04/28 01:15:24;;;;;;;11.00;9.90;;;14.20;84.40;;;;;;5056829;28;20496;-56
2023/04/28 01:17:51;;;;;;;11.53;8.83;;;14.20;85.30;;;;;;5056750;28;20516;-56
2023/04/28 01:20:19;;;;;;;8.90;8.00;;;14.20;86.20;;;;;;5056874;28;20500;-56
2023/04/28 01:22:46;;;;;;;9.93;9.03;;;14.20;87.50;;;;;;5056702;28;20492;-57
2023/04/28 01:25:14;;;;;;;10.33;8.90;;;14.20;87.90;;;;;;5056728;28;20863;-57
2023/04/28 01:27:40;;;;;;;13.03;9.13;;;14.20;87.80;;;;;;5056745;28;20445;-56
2023/04/28 01:30:08;;;;;;;10.90;9.80;;;14.20;87.90;;;;;;5056404;28;21004;-56
2023/04/28 01:32:35;;;;;;;9.50;8.50;;;14.10;87.70;;;;;;5055991;28;20449;-57
2023/04/28 01:35:02;;;;;;;10.90;9.43;;;14.10;88.10;;;;;;5056502;28;20496;-57
2023/04/28 01:37:29;;;;;;;10.23;8.93;;;14.10;88.70;;;;;;5056548;28;20874;-56
2023/04/28 01:39:56;;;;;;;9.97;8.27;;;14.10;89.10;;;;;;5056493;28;20481;-56
2023/04/28 01:42:24;;;;;;;9.57;8.50;;;14.10;89.10;;;;;;5056448;28;20441;-56
2023/04/28 01:44:50;;;;;;;11.37;10.10;;;14.10;89.30;;;;;;5056319;28;20473;-56
2023/04/28 01:47:17;;;;;;;10.83;9.03;;;14.10;89.50;;;;;;5056378;28;20449;-56
2023/04/28 01:49:46;;;;;;;11.03;9.83;;;14.10;89.70;;;;;;5056237;28;20449;-56
2023/04/28 01:52:13;;;;;;;10.43;9.43;;;14.10;89.80;;;;;;5056242;28;20483;-56
2023/04/28 01:54:39;;;;;;;11.20;9.20;;;14.10;89.60;;;;;;5056148;28;20473;-56
2023/04/28 01:57:06;;;;;;;10.70;8.87;;;14.10;88.70;;;;;;5056118;28;20823;-56
2023/04/28 01:59:34;;;;;;;10.37;8.17;;;14.10;89.60;;;;;;5056150;28;20483;-56
2023/04/28 02:02:01;;;;;;;13.90;10.30;;;14.00;90.20;;;;;;5056614;28;20446;-56
2023/04/28 02:04:27;;;;;;;9.40;8.40;;;14.00;90.60;;;;;;5055944;28;20461;-57
2023/04/28 02:06:54;;;;;;;10.80;9.77;;;14.00;91.00;;;;;;5055666;28;20446;-56
2023/04/28 02:09:20;;;;;;;11.20;8.37;;;14.00;91.20;;;;;;5055629;28;20959;-56
2023/04/28 02:11:47;;;;;;;10.13;9.13;;;14.00;91.50;;;;;;5055909;28;20450;-56
2023/04/28 02:14:14;;;;;;;12.30;10.13;;;14.00;91.70;;;;;;5055801;28;20477;-56
2023/04/28 02:16:42;;;;;;;10.23;8.60;;;14.00;91.70;;;;;;5055733;28;20481;-56
2023/04/28 02:19:08;;;;;;;10.23;9.13;;;14.00;91.80;;;;;;5055816;28;20453;-56
2023/04/28 02:21:35;;;;;;;9.10;8.10;;;14.00;91.80;;;;;;5055663;28;20446;-56
2023/04/28 02:24:02;;;;;;;10.13;9.20;;;13.90;92.00;;;;;;5055712;28;20465;-56
2023/04/28 02:26:28;;;;;;;9.90;7.97;;;14.00;92.20;;;;;;5055259;28;20966;-56
2023/04/28 02:28:55;;;;;;;9.70;8.80;;;13.90;92.20;;;;;;5055558;28;20449;-56
2023/04/28 02:31:22;;;;;;;13.13;9.80;;;13.90;92.30;;;;;;5055565;28;20441;-56
2023/04/28 02:33:50;;;;;;;11.40;7.73;;;13.90;92.30;;;;;;5055410;28;20531;-57
2023/04/28 02:36:17;;;;;;;9.83;8.80;;;13.90;92.20;;;;;;5055372;28;20481;-56
2023/04/28 02:38:44;;;;;;;9.40;8.50;;;13.90;92.30;;;;;;5055510;28;20481;-56
2023/04/28 02:41:10;;;;;;;10.30;9.30;;;13.90;92.40;;;;;;5055056;28;20855;-56
2023/04/28 02:43:38;;;;;;;9.23;8.33;;;13.90;92.70;;;;;;5056074;28;20468;-56
2023/04/28 02:46:05;;;;;;;8.70;7.23;;;13.90;92.80;;;;;;5056867;28;20445;-56
2023/04/28 02:48:32;;;;;;;12.67;8.63;;;13.80;92.70;;;;;;5056239;28;20456;-56
2023/04/28 02:51:00;;;;;;;10.27;8.10;;;13.90;93.00;;;;;;5055881;28;20460;-57
2023/04/28 02:53:28;;;;;;;9.27;8.37;;;13.80;93.10;;;;;;5055545;28;20461;-57
2023/04/28 02:55:55;;;;;;;9.63;8.43;;;13.90;93.10;;;;;;5055211;28;20489;-57
2023/04/28 02:58:21;;;;;;;10.23;8.50;;;13.90;93.10;;;;;;5055161;28;20456;-56
2023/04/28 03:00:48;;;;;;;13.97;8.60;;;13.90;93.20;;;;;;5055036;28;20457;-56
2023/04/28 03:03:15;;;;;;;13.10;10.30;;;13.90;93.30;;;;;;5054950;28;20476;-56
2023/04/28 03:05:41;;;;;;;10.20;8.50;;;13.90;93.60;;;;;;5054977;28;20449;-56
2023/04/28 03:08:09;;;;;;;12.20;8.90;;;13.80;93.50;;;;;;5054930;28;20978;-56
2023/04/28 03:10:36;;;;;;;9.07;8.17;;;13.80;93.20;;;;;;5054825;28;20454;-56
2023/04/28 03:13:03;;;;;;;11.10;10.00;;;13.80;93.40;;;;;;5054275;28;20445;-57
2023/04/28 03:15:29;;;;;;;9.63;8.57;;;13.80;93.70;;;;;;5054647;28;20515;-56
2023/04/28 03:17:56;;;;;;;11.57;9.13;;;13.80;93.60;;;;;;5054727;28;20453;-56
2023/04/28 03:20:23;;;;;;;11.03;8.70;;;13.80;93.60;;;;;;5054330;28;20836;-56
2023/04/28 03:22:49;;;;;;;9.73;8.40;;;13.80;93.70;;;;;;5054571;28;20445;-56
2023/04/28 03:25:17;;;;;;;8.90;8.10;;;13.70;93.60;;;;;;5054139;28;20473;-56
2023/04/28 03:27:44;;;;;;;8.03;7.27;;;13.70;93.60;;;;;;5054539;28;20450;-56
2023/04/28 03:30:12;;;;;;;8.80;7.90;;;13.60;93.70;;;;;;5054512;28;20453;-56
2023/04/28 03:32:39;;;;;;;9.10;7.47;;;13.60;93.70;;;;;;5054344;28;20499;-56
2023/04/28 03:35:06;;;;;;;8.93;7.60;;;13.70;93.80;;;;;;5054270;28;20529;-56
2023/04/28 03:37:33;;;;;;;9.93;8.13;;;13.60;93.80;;;;;;5053963;28;20961;-56
2023/04/28 03:40:00;;;;;;;10.40;7.90;;;13.60;94.00;;;;;;5054258;28;20445;-56
2023/04/28 03:42:28;;;;;;;8.87;7.67;;;13.60;94.00;;;;;;5054167;28;20994;-56
2023/04/28 03:44:55;;;;;;;8.83;7.77;;;13.50;93.80;;;;;;5053865;28;20875;-56
2023/04/28 03:47:21;;;;;;;10.93;8.00;;;13.50;94.10;;;;;;5054081;28;20441;-56
2023/04/28 03:49:48;;;;;;;8.83;8.00;;;13.50;94.30;;;;;;5054060;28;20453;-56
2023/04/28 03:52:15;;;;;;;10.90;8.87;;;13.50;94.50;;;;;;5054641;28;20446;-56
2023/04/28 03:54:41;;;;;;;10.43;8.30;;;13.50;94.60;;;;;;5053890;28;20501;-56
2023/04/28 03:57:08;;;;;;;8.30;7.50;;;13.50;94.40;;;;;;5053867;28;20488;-56
2023/04/28 03:59:36;;;;;;;11.90;8.63;;;13.50;94.50;;;;;;5053900;28;20441;-56
2023/04/28 04:02:03;;;;;;;9.07;8.17;;;13.50;94.60;;;;;;5053826;28;20441;-56
2023/04/28 04:04:30;;;;;;;11.60;7.70;;;13.50;94.80;;;;;;5053731;28;20509;-56
2023/04/28 04:06:56;;;;;;;8.50;7.60;;;13.50;94.90;;;;;;5053738;28;20442;-56
2023/04/28 04:09:23;;;;;;;10.93;7.77;;;13.50;94.90;;;;;;5053364;28;20458;-56
2023/04/28 04:11:50;;;;;;;9.63;8.63;;;13.50;95.10;;;;;;5053335;28;20958;-56
2023/04/28 04:14:16;;;;;;;9.83;8.90;;;13.50;95.10;;;;;;5053587;28;20474;-56
2023/04/28 04:16:46;;;;;;;12.13;9.53;;;13.50;95.20;;;;;;5053330;28;20850;-56
2023/04/28 04:19:13;;;;;;;14.27;8.90;;;13.50;95.30;;;;;;5053617;28;20548;-56
2023/04/28 04:21:39;;;;;;;11.17;8.70;;;13.50;95.40;;;;;;5053556;28;20472;-56
2023/04/28 04:24:07;;;;;;;9.80;8.80;;;13.50;95.50;;;;;;5053494;28;20477;-56
2023/04/28 04:26:33;;;;;;;11.10;8.80;;;13.50;95.50;;;;;;5052684;28;20492;-56
2023/04/28 04:29:00;;;;;;;13.17;10.50;;;13.50;95.60;;;;;;5053445;28;20441;-56
2023/04/28 04:31:27;;;;;;;11.23;9.07;;;13.50;95.60;;;;;;5053140;28;20503;-56
2023/04/28 04:33:55;;;;;;;11.90;9.77;;;13.50;95.80;;;;;;5052964;28;20983;-56
2023/04/28 04:36:22;;;;;;;10.87;9.73;;;13.50;95.90;;;;;;5053266;28;20481;-56
2023/04/28 04:38:48;;;;;;;10.20;9.20;;;13.50;95.90;;;;;;5053297;28;20446;-56
2023/04/28 04:41:15;;;;;;;12.60;10.13;;;13.50;95.90;;;;;;5053343;28;20449;-56
2023/04/28 04:43:42;;;;;;;10.60;9.47;;;13.50;95.90;;;;;;5053136;28;20538;-56
2023/04/28 04:46:08;;;;;;;9.57;8.67;;;13.50;96.00;;;;;;5053281;28;20825;-56
2023/04/28 04:48:35;;;;;;;11.87;10.57;;;13.50;95.90;;;;;;5053188;28;20445;-56
2023/04/28 04:51:04;;;;;;;12.87;9.53;;;13.50;96.00;;;;;;5052854;28;21034;-56
2023/04/28 04:53:30;;;;;;;14.43;9.20;;;13.50;96.30;;;;;;5053134;28;20470;-56
2023/04/28 04:55:57;;;;;;;11.17;8.80;;;13.50;96.30;;;;;;5053067;28;20477;-56
2023/04/28 04:58:24;;;;;;;9.80;8.90;;;13.50;96.10;;;;;;5053140;28;20445;-56
2023/04/28 05:00:51;;;;;;;11.47;8.53;;;13.50;96.00;;;;;;5052806;28;20952;-56
2023/04/28 05:03:17;;;;;;;10.07;8.47;;;13.50;96.00;;;;;;5052723;28;20983;-56
2023/04/28 05:05:44;;;;;;;11.50;9.10;;;13.50;95.90;;;;;;5052769;28;20843;-56
2023/04/28 05:08:13;;;;;;;10.00;9.00;;;13.50;95.90;;;;;;5052670;28;21001;-56
2023/04/28 05:10:39;;;;;;;9.93;9.00;;;13.50;95.90;;;;;;5053019;28;20445;-56
2023/04/28 05:13:06;;;;;;;11.63;9.30;;;13.50;95.90;;;;;;5052966;28;20572;-56
2023/04/28 05:15:33;;;;;;;14.43;10.50;;;13.50;96.00;;;;;;5052859;28;20983;-56
2023/04/28 05:18:05;;;;;;;11.13;9.13;;;13.50;96.00;;;;;;5052933;28;20500;-56
2023/04/28 05:20:32;;;;;;;11.53;8.30;;;13.60;96.20;;;;;;5052925;28;20445;-56
2023/04/28 05:22:58;;;;;;;11.30;8.60;;;13.60;96.10;;;;;;5052983;28;20818;-56
2023/04/28 05:25:26;;;;;;;10.30;8.60;;;13.60;96.00;;;;;;5052683;28;20820;-56
2023/04/28 05:27:53;;;;;;;13.63;8.30;;;13.60;95.90;;;;;;5052886;28;20847;-56
2023/04/28 05:30:20;;;;;;;10.10;7.63;;;13.60;95.90;;;;;;5053042;28;20458;-56
2023/04/28 05:32:46;;;;;;;9.80;8.80;;;13.70;95.60;;;;;;5052968;28;20445;-56
2023/04/28 05:35:14;;;;;;;9.07;8.07;;;13.70;95.70;;;;;;5052597;28;20477;-56
2023/04/28 05:37:42;;;;;;;14.33;8.67;;;13.80;95.50;;;;;;5056239;28;20481;-57
2023/04/28 05:40:10;;;;;;;10.83;8.00;;;13.80;95.40;;;;;;5057047;28;20536;-58
2023/04/28 05:42:38;;;;;;;12.13;8.60;;;13.90;95.30;;;;;;5057571;28;20460;-57
2023/04/28 05:45:06;;;;;;;9.70;7.37;;;13.90;95.30;;;;;;5057627;28;20477;-56
2023/04/28 05:47:33;;;;;;;7.80;6.83;;;13.90;95.30;;;;;;5056856;28;20967;-57
2023/04/28 05:50:00;;;;;;;8.43;7.53;;;14.00;95.10;;;;;;5057205;28;20449;-57
2023/04/28 05:52:26;;;;;;;13.43;9.57;;;14.10;94.80;;;;;;5057299;28;20449;-57
2023/04/28 05:54:53;;;;;;;8.93;6.63;;;14.10;94.70;;;;;;5057246;28;20469;-57
2023/04/28 05:57:20;;;;;;;10.93;8.23;;;14.10;94.50;;;;;;5056781;28;20477;-57
2023/04/28 05:59:48;;;;;;;7.77;7.00;;;14.20;94.50;;;;;;5056150;28;20967;-56
2023/04/28 06:02:15;;;;;;;8.70;7.10;;;14.20;94.50;;;;;;5056368;28;20449;-57
2023/04/28 06:04:43;;;;;;;7.83;6.27;;;14.30;94.40;;;;;;5056365;28;20472;-57
2023/04/28 06:07:10;;;;;;;10.03;7.30;;;14.40;94.20;;;;;;5055869;28;20454;-57
2023/04/28 06:09:36;;;;;;;8.60;6.30;;;14.40;94.10;;;;;;5055947;28;20472;-57
2023/04/28 06:12:03;;;;;;;9.03;6.87;;;14.40;93.90;;;;;;5056135;28;20460;-57
2023/04/28 06:14:31;;;;;;;10.43;7.37;;;14.40;93.90;;;;;;5056221;28;20560;-57
2023/04/28 06:16:59;;;;;;;9.37;7.33;;;14.40;93.60;;;;;;5056038;28;20485;-57
2023/04/28 06:19:26;;;;;;;6.77;6.13;;;14.30;93.60;;;;;;5055676;28;20503;-57
2023/04/28 06:21:52;;;;;;;9.10;8.17;;;14.30;93.50;;;;;;5055867;28;20453;-57
2023/04/28 06:24:19;;;;;;;9.17;6.90;;;14.40;93.70;;;;;;5057194;28;20465;-58
2023/04/28 06:26:46;;;;;;;10.13;7.00;;;14.40;93.80;;;;;;5056254;28;20500;-57
2023/04/28 06:29:13;;;;;;;7.93;7.13;;;14.50;93.40;;;;;;5055648;28;20445;-57
2023/04/28 06:31:40;;;;;;;10.40;6.60;;;14.50;93.20;;;;;;5055246;28;20921;-56
2023/04/28 06:34:08;;;;;;;11.60;6.73;;;14.60;93.00;;;;;;5055564;28;20473;-57
2023/04/28 06:36:35;;;;;;;9.20;7.13;;;14.70;93.10;;;;;;5055511;28;20482;-57
2023/04/28 06:39:01;;;;;;;8.23;6.90;;;14.70;93.10;;;;;;5055450;28;20449;-57
2023/04/28 06:41:29;;;;;;;9.37;7.80;;;14.70;93.00;;;;;;5055381;28;20529;-57
2023/04/28 06:43:55;;;;;;;10.47;7.90;;;14.70;93.10;;;;;;5055355;28;20473;-57
2023/04/28 06:46:22;;;;;;;8.03;7.23;;;14.70;93.10;;;;;;5055375;28;20499;-56
2023/04/28 06:48:49;;;;;;;8.70;7.30;;;14.70;93.10;;;;;;5053990;28;21028;-57
2023/04/28 06:51:17;;;;;;;10.40;7.67;;;14.80;93.00;;;;;;5055179;28;20445;-57
2023/04/28 06:53:43;;;;;;;9.00;7.50;;;14.80;93.00;;;;;;5055130;28;20504;-57
2023/04/28 06:56:10;;;;;;;10.83;9.50;;;14.90;92.90;;;;;;5055077;28;20458;-57
2023/04/28 06:58:37;;;;;;;11.30;9.60;;;14.90;93.50;;;;;;5055221;28;20442;-57
2023/04/28 07:01:04;;;;;;;10.07;8.30;;;14.80;94.10;;;;;;5055033;28;20496;-56
2023/04/28 07:03:31;;;;;;;14.73;9.57;;;14.70;94.10;;;;;;5054759;28;20500;-57
2023/04/28 07:05:58;;;;;;;12.43;9.33;;;14.60;94.50;;;;;;5054980;28;20442;-56
2023/04/28 07:08:26;;;;;;;10.83;8.97;;;14.50;94.60;;;;;;5054640;28;20464;-57
2023/04/28 07:10:53;;;;;;;13.07;9.80;;;14.50;95.10;;;;;;5054837;28;20454;-57
2023/04/28 07:13:19;;;;;;;13.63;10.77;;;14.50;95.30;;;;;;5054784;28;20469;-57
2023/04/28 07:15:46;;;;;;;9.93;8.93;;;14.50;95.30;;;;;;5055610;28;20472;-57
2023/04/28 07:18:13;;;;;;;15.70;10.10;;;14.50;95.40;;;;;;5054643;28;20485;-57
2023/04/28 07:20:39;;;;;;;14.07;8.50;;;14.60;95.40;;;;;;5054689;28;20841;-57
2023/04/28 07:23:06;;;;;;;17.43;9.90;;;14.60;95.80;;;;;;5054679;28;20445;-57
2023/04/28 07:25:35;;;;;;;9.63;8.63;;;14.70;95.70;;;;;;5054646;28;20449;-57
2023/04/28 07:28:03;;;;;;;13.33;8.33;;;14.70;95.10;;;;;;5054750;28;20445;-57
2023/04/28 07:30:30;;;;;;;11.33;9.20;;;14.70;95.20;;;;;;5054502;28;20445;-57
2023/04/28 07:32:57;;;;;;;12.87;11.00;;;14.90;95.10;;;;;;5054438;28;20445;-58
2023/04/28 07:35:24;;;;;;;11.70;9.77;;;14.70;95.80;;;;;;5071576;28;20803;-57
2023/04/28 07:37:51;;;;;;;10.10;9.10;;;14.70;95.40;;;;;;5074299;28;20503;-57
2023/04/28 07:40:19;;;;;;;14.20;11.70;;;14.60;95.70;;;;;;5074000;28;20453;-58
2023/04/28 07:42:47;;;;;;;12.70;11.23;;;14.60;96.40;;;;;;5074133;28;20444;-57
2023/04/28 07:45:15;;;;;;;11.43;10.23;;;14.70;96.70;;;;;;5074015;28;20460;-57
2023/04/28 07:47:41;;;;;;;11.30;9.33;;;14.70;96.60;;;;;;5074042;28;20445;-57
2023/04/28 07:50:09;;;;;;;11.07;9.87;;;14.80;96.50;;;;;;5073976;28;20483;-56
2023/04/28 07:52:36;;;;;;;12.63;10.70;;;14.80;96.60;;;;;;5073949;28;20445;-57
2023/04/28 07:55:03;;;;;;;11.70;9.97;;;14.80;96.50;;;;;;5073498;28;21028;-57
2023/04/28 07:57:30;;;;;;;9.87;8.87;;;14.90;96.20;;;;;;5073787;28;20856;-57
2023/04/28 07:59:58;;;;;;;16.20;11.20;;;14.90;96.30;;;;;;5073781;28;20451;-57
2023/04/28 08:02:26;;;;;;;13.13;11.60;;;14.90;96.40;;;;;;5073848;28;20866;-57
2023/04/28 08:04:52;;;;;;;13.70;9.43;;;15.10;96.60;;;;;;5073735;28;20545;-56
2023/04/28 08:07:19;;;;;;;14.40;9.57;;;15.20;96.90;;;;;;5073556;28;20456;-57
2023/04/28 08:09:47;;;;;;;10.40;9.50;;;15.30;96.20;;;;;;5073715;28;20440;-57
2023/04/28 08:12:13;;;;;;;13.33;9.43;;;15.50;96.10;;;;;;5073725;28;20448;-57
2023/04/28 08:14:40;;;;;;;9.83;8.97;;;15.80;95.80;;;;;;5073526;28;20471;-57
2023/04/28 08:17:08;;;;;;;10.37;8.40;;;16.00;94.70;;;;;;5073547;28;20488;-57
2023/04/28 08:19:35;;;;;;;11.73;10.53;;;16.10;93.30;;;;;;5074408;28;20566;-57
2023/04/28 08:22:04;;;;;;;11.53;10.43;;;16.20;94.30;;;;;;5073238;28;20814;-57
2023/04/28 08:24:33;;;;;;;10.50;9.40;;;16.10;94.40;;;;;;5073201;28;20475;-57
2023/04/28 08:27:02;;;;;;;11.07;9.80;;;16.20;94.60;;;;;;5073460;28;20448;-56
2023/04/28 08:29:29;;;;;;;13.00;11.60;;;16.30;94.30;;;;;;5073104;28;21020;-57
2023/04/28 08:31:56;;;;;;;10.07;9.17;;;16.40;94.40;;;;;;5073467;28;20498;-57
2023/04/28 08:34:24;;;;;;;10.20;8.73;;;16.40;93.90;;;;;;5073311;28;20479;-57
2023/04/28 08:36:52;;;;;;;14.33;11.03;;;16.40;93.50;;;;;;5073024;28;20449;-57
2023/04/28 08:39:19;;;;;;;11.20;10.07;;;16.50;93.90;;;;;;5073455;28;20448;-57
2023/04/28 08:41:46;;;;;;;11.87;9.73;;;16.50;94.20;;;;;;5075869;28;20452;-57
2023/04/28 08:44:12;;;;;;;10.13;8.40;;;16.60;94.20;;;;;;5075094;28;20491;-57
2023/04/28 08:46:40;;;;;;;9.40;8.43;;;16.70;93.80;;;;;;5074446;28;20452;-57
2023/04/28 08:49:11;;;;;;;9.90;9.00;;;16.80;93.70;;;;;;5073580;28;20488;-57
2023/04/28 08:51:46;;;;;;;9.20;8.40;;;16.90;94.00;;;;;;5073648;28;20447;-57
2023/04/28 08:54:15;;;;;;;10.03;9.13;;;16.90;94.30;;;;;;5073394;28;20567;-57
2023/04/28 08:56:44;;;;;;;9.63;8.70;;;16.90;94.40;;;;;;5073295;28;20529;-57
2023/04/28 08:59:11;;;;;;;10.70;9.17;;;16.90;95.10;;;;;;5073148;28;20437;-57
2023/04/28 09:01:38;;;;;;;9.50;8.60;;;17.00;95.30;;;;;;5073207;28;20441;-57
2023/04/28 09:04:05;;;;;;;11.50;8.90;;;17.00;95.50;;;;;;5072865;28;20528;-57
2023/04/28 09:06:34;;;;;;;9.83;8.83;;;17.10;95.60;;;;;;5073100;28;20436;-56
2023/04/28 09:09:25;;;;;;;13.13;9.80;;;17.10;95.50;;;;;;5072727;28;20854;-56
2023/04/28 09:11:57;;;;;;;10.03;9.10;;;17.10;95.90;;;;;;5074074;28;20856;-56
2023/04/28 09:14:24;;;;;;;9.40;8.50;;;17.10;96.10;;;;;;5077067;28;20829;-56
2023/04/28 09:16:51;;;;;;;8.50;7.50;;;17.10;95.80;;;;;;5076894;28;20449;-56
2023/04/28 09:19:18;;;;;;;10.30;9.30;;;17.10;96.10;;;;;;5076686;28;20938;-56
2023/04/28 09:21:50;;;;;;;8.90;8.20;;;17.00;95.90;;;;;;5076897;28;20456;-56
2023/04/28 09:24:42;;;;;;;8.70;7.90;;;17.00;95.80;;;;;;5076845;28;20476;-57
2023/04/28 09:27:10;;;;;;;10.77;9.70;;;17.00;95.80;;;;;;5061798;28;20543;-56
2023/04/28 09:29:37;;;;;;;14.57;9.23;;;17.00;96.10;;;;;;5076755;28;20547;-56
2023/04/28 09:32:14;;;;;;;8.67;7.77;;;17.00;96.40;;;;;;5076768;28;20440;-56
2023/04/28 09:34:45;;;;;;;10.00;8.30;;;17.10;96.70;;;;;;5076644;28;20460;-57
2023/04/28 09:37:15;;;;;;;9.53;8.50;;;17.20;96.80;;;;;;5076465;28;20448;-56
2023/04/28 09:39:44;;;;;;;10.47;9.40;;;17.30;96.60;;;;;;5076254;28;21006;-56
2023/04/28 09:42:11;;;;;;;11.97;9.30;;;17.30;97.00;;;;;;5076486;28;20464;-56
2023/04/28 09:44:38;;;;;;;9.80;8.90;;;17.20;97.40;;;;;;5075983;28;20986;-56
2023/04/28 09:47:21;;;;;;;11.10;8.83;;;17.20;97.50;;;;;;5076419;28;20467;-57
2023/04/28 09:49:54;;;;;;;8.40;7.63;;;17.20;97.90;;;;;;5076119;28;20774;-57
2023/04/28 09:52:21;;;;;;;7.83;7.13;;;17.30;97.80;;;;;;5076859;28;20429;-56
2023/04/28 09:54:51;;;;;;;8.90;8.03;;;17.40;97.80;;;;;;5076122;28;20468;-57
2023/04/28 09:57:18;;;;;;;7.10;6.60;;;17.40;97.70;;;;;;5075825;28;20484;-58
2023/04/28 09:59:48;;;;;;;9.37;8.47;;;17.50;98.40;;;;;;5076188;28;20467;-56
2023/04/28 10:02:16;;;;;;;7.87;7.17;;;17.60;98.30;;;;;;5076191;28;20817;-57
2023/04/28 10:04:44;;;;;;;7.47;6.77;;;17.60;98.60;;;;;;5076039;28;20468;-56
2023/04/28 10:07:11;;;;;;;7.37;6.77;;;17.60;98.60;;;;;;5075918;28;20453;-56
2023/04/28 10:09:42;;;;;;;8.80;6.77;;;17.70;98.70;;;;;;5075475;28;20559;-56
2023/04/28 10:12:11;;;;;;;8.57;7.80;;;17.70;98.70;;;;;;5075959;28;20490;-56
2023/04/28 10:14:38;;;;;;;7.80;7.00;;;17.70;99.00;;;;;;5075537;28;20872;-57
2023/04/28 10:17:05;;;;;;;7.63;7.03;;;17.60;99.20;;;;;;5075778;28;20470;-57
2023/04/28 10:19:32;;;;;;;7.50;6.57;;;17.70;99.70;;;;;;5075662;28;20487;-57
2023/04/28 10:22:14;;;;;;;8.30;7.60;;;17.60;99.90;;;;;;5075786;28;20453;-56
2023/04/28 10:24:53;;;;;;;8.07;7.37;;;17.30;99.90;;;;;;5074524;28;20885;-56
2023/04/28 10:27:29;;;;;;;9.40;8.50;;;17.10;99.90;;;;;;5075728;28;20644;-56
2023/04/28 10:30:10;;;;;;;8.83;8.10;;;17.00;99.90;;;;;;5076094;28;20437;-57
2023/04/28 10:32:36;;;;;;;7.83;7.23;;;17.00;99.90;;;;;;5075320;28;20906;-56
2023/04/28 10:35:41;;;;;;;9.17;8.37;;;17.00;99.90;;;;;;5075190;28;20472;-56
2023/04/28 10:38:09;;;;;;;9.07;8.37;;;17.00;99.90;;;;;;5075068;28;20530;-57
2023/04/28 10:40:38;;;;;;;8.97;8.10;;;17.00;99.90;;;;;;5075492;28;20805;-56
2023/04/28 10:43:07;;;;;;;8.30;7.60;;;17.00;99.90;;;;;;5075428;28;20443;-57
2023/04/28 10:45:59;;;;;;;8.73;8.03;;;17.10;99.90;;;;;;5075411;28;20455;-56
2023/04/28 10:49:05;;;;;;;8.87;8.07;;;17.30;99.90;;;;;;5075259;28;20445;-56
2023/04/28 10:51:33;;;;;;;12.70;7.83;;;17.60;99.90;;;;;;5075378;28;20508;-56
2023/04/28 10:54:16;;;;;;;8.20;7.50;;;17.80;99.90;;;;;;5075055;28;20460;-56
2023/04/28 10:57:17;;;;;;;8.80;8.10;;;17.90;99.90;;;;;;5074870;28;20957;-56
2023/04/28 10:59:46;;;;;;;7.97;7.37;;;18.00;99.90;;;;;;5075116;28;20475;-56
2023/04/28 11:02:39;;;;;;;6.80;6.30;;;18.10;99.90;;;;;;5075083;28;20453;-56
2023/04/28 11:05:29;;;;;;;8.70;8.00;;;18.00;99.90;;;;;;5074869;28;20472;-56
2023/04/28 11:08:33;;;;;;;8.17;7.57;;;18.00;99.90;;;;;;5074675;28;20456;-56
2023/04/28 11:11:20;;;;;;;8.80;8.10;;;18.00;99.90;;;;;;5074880;28;20428;-56
2023/04/28 11:13:48;;;;;;;7.80;7.10;;;18.10;99.90;;;;;;5074829;28;20511;-56
2023/04/28 11:16:20;;;;;;;7.57;6.97;;;18.40;99.90;;;;;;5074746;28;20490;-56
2023/04/28 11:19:08;;;;;;;6.97;6.47;;;18.70;99.90;;;;;;5074605;28;20456;-56
2023/04/28 11:21:35;;;;;;;6.67;6.07;;;19.30;99.40;;;;;;5074301;28;20841;-56
2023/04/28 11:24:09;;;;;;;5.00;4.60;;;20.30;98.30;;;;;;5074526;28;20465;-56
2023/04/28 11:26:37;;;;;;;5.70;5.30;;;21.30;95.50;;;;;;5074746;28;20496;-57
2023/04/28 11:29:04;;;;;;;5.73;5.33;;;21.70;92.90;;;;;;5074652;28;20440;-56
2023/04/28 11:31:33;;;;;;;6.07;5.47;;;21.80;92.10;;;;;;5076087;28;20452;-57
2023/04/28 11:34:04;;;;;;;5.00;4.60;;;21.80;91.60;;;;;;5075643;28;20467;-57
2023/04/28 11:36:34;;;;;;;4.70;4.40;;;22.00;91.80;;;;;;5075274;28;20429;-56
2023/04/28 11:39:03;;;;;;;5.03;4.57;;;22.10;90.80;;;;;;5074742;28;20884;-57
2023/04/28 11:41:31;;;;;;;4.63;4.23;;;22.10;90.90;;;;;;5074415;28;20444;-56
2023/04/28 11:43:57;;;;;;;4.20;3.90;;;22.10;91.00;;;;;;5074334;28;20476;-57
2023/04/28 11:46:25;;;;;;;4.30;4.00;;;22.10;90.30;;;;;;5074241;28;20455;-56
2023/04/28 11:49:05;;;;;;;4.77;4.43;;;22.00;90.40;;;;;;5074320;28;20834;-56
2023/04/28 11:51:34;;;;;;;4.87;4.30;;;21.80;90.80;;;;;;5074183;28;20436;-56
2023/04/28 11:54:01;;;;;;;4.40;4.10;;;21.50;90.80;;;;;;5074040;28;20473;-56
2023/04/28 11:56:28;;;;;;;4.40;4.10;;;21.40;91.70;;;;;;5073979;28;20528;-56
2023/04/28 11:59:06;;;;;;;5.40;5.00;;;21.40;91.80;;;;;;5073557;28;21001;-56
2023/04/28 12:01:36;;;;;;;6.60;4.07;;;21.40;91.90;;;;;;5073927;28;20543;-56
2023/04/28 12:04:04;;;;;;;4.30;4.00;;;21.40;91.90;;;;;;5073874;28;20468;-57
2023/04/28 12:06:31;;;;;;;4.00;3.73;;;21.40;90.90;;;;;;5073500;28;20808;-56
2023/04/28 12:09:03;;;;;;;3.90;3.60;;;21.60;91.30;;;;;;5073519;28;20480;-56
2023/04/28 12:11:30;;;;;;;3.70;3.40;;;22.10;90.30;;;;;;5074268;28;20493;-56
2023/04/28 12:14:03;;;;;;;4.07;3.83;;;22.50;90.20;;;;;;5073755;28;20472;-56
2023/04/28 12:16:42;;;;;;;3.43;3.20;;;23.00;86.20;;;;;;5073744;28;20450;-56
2023/04/28 12:19:11;;;;;;;3.27;2.97;;;24.10;85.20;;;;;;5073633;28;20491;-56
2023/04/28 12:21:38;;;;;;;3.30;3.00;;;25.60;75.40;;;;;;5073655;28;20511;-56
2023/04/28 12:24:19;;;;;;;2.80;2.60;;;26.90;68.30;;;;;;5073569;28;20500;-56
2023/04/28 12:26:46;;;;;;;2.80;2.60;;;27.10;62.70;;;;;;5073444;28;20436;-57
2023/04/28 12:29:35;;;;;;;3.60;3.30;;;26.70;62.00;;;;;;5073492;28;20468;-56
2023/04/28 12:32:02;;;;;;;3.73;3.17;;;26.10;63.00;;;;;;5073495;28;20447;-56
2023/04/28 12:34:32;;;;;;;3.20;3.00;;;25.50;66.60;;;;;;5073422;28;20472;-56
2023/04/28 12:36:59;;;;;;;3.27;3.07;;;25.30;67.60;;;;;;5073439;28;21015;-56
2023/04/28 12:39:26;;;;;;;3.23;3.00;;;25.30;66.90;;;;;;5073404;28;20485;-56
2023/04/28 12:41:53;;;;;;;3.90;3.60;;;25.40;67.20;;;;;;5073402;28;20492;-56
2023/04/28 12:44:21;;;;;;;2.80;2.60;;;25.60;67.30;;;;;;5073426;28;20474;-57
2023/04/28 12:46:47;;;;;;;2.63;2.30;;;26.40;68.20;;;;;;5072139;28;20452;-56
2023/04/28 12:49:15;;;;;;;2.30;2.20;;;27.60;61.30;;;;;;5053362;28;20974;-56